Weather observations for the past three days for
Richard I. Bong Airport
Imperial (Metric)
Date Time (cdt) Wind (mph) Vis. (mi.) Weather Sky Cond. Temperature (ºF) Relative Humidity Wind Chill (°F) Heat Index (°F) Pressure Precipitation (in)
Air Dwpt 6 hour altimeter (in) sea level (mb) 1 hr 3 hr 6 hr
Max. Min.
05 17:35 NW 14 G 21 10.00 Overcast OVC050 44.4 21.9 41% 38 29.83 0.0
05 17:15 W 14 G 18 10.00 Overcast OVC050 44.8 22.3 41% 39 29.83 0.0
05 16:55 NW 17 G 23 10.00 Overcast OVC050 44.6 21.9 41% 38 29.82 0.0
05 16:35 W 13 G 20 10.00 Overcast OVC050 44.1 21.9 41% 38 29.83 0.0
05 16:15 W 17 G 23 10.00 Overcast OVC048 44.1 21.9 41% 37 29.82 0.0
05 15:55 W 12 G 20 10.00 Overcast OVC048 44.1 22.5 42% 39 29.82 0.0
05 15:35 W 16 G 21 10.00 Overcast OVC048 43.7 23.2 44% 37 29.82 0.0
05 15:15 W 15 G 21 10.00 Overcast BKN048 OVC050 43.7 22.8 44% 37 29.83 0.0
05 14:55 W 14 G 23 10.00 Overcast OVC050 43.9 22.8 43% 38 29.82 0.0
05 14:35 W 15 G 20 10.00 Overcast OVC050 43.2 22.1 43% 36 29.82 0.0
05 14:15 W 13 G 18 10.00 Overcast OVC050 43.7 22.3 43% 38 29.82 0.0
05 13:55 W 14 G 17 10.00 Overcast BKN048 OVC060 43.2 22.6 44% 37 29.82 0.0
05 13:35 NW 13 10.00 Overcast OVC050 42.6 21.7 43% 37 29.82 0.0
05 13:15 W 12 G 18 10.00 Overcast OVC050 42.8 22.1 44% 37 29.81 0.0
05 12:55 W 10 10.00 Overcast OVC048 41.2 21.6 42.4 33.8 46% 36 29.82 0.0
05 12:35 W 9 10.00 Overcast OVC048 41.9 21.4 44% 37 29.81 0.0
05 11:55 NW 10 G 17 10.00 Overcast OVC048 41.5 21 44% 36 29.81 0.0
05 11:35 NW 14 G 17 10.00 Overcast OVC045 40.5 21.4 47% 33 29.81 0.0
05 11:15 W 10 G 21 10.00 Overcast OVC045 39.6 20.8 47% 34 29.81 0.0
05 10:55 NW 15 G 20 10.00 Overcast OVC043 39 20.3 47% 31 29.81 0.0
05 10:35 W 8 10.00 Overcast OVC045 37.2 20.3 50% 32 29.81 0.0
05 10:15 NW 13 G 18 10.00 Overcast OVC045 36.9 19.6 50% 29 29.8 0.0
05 09:55 NW 14 G 20 10.00 Overcast BKN043 OVC050 36.1 19.8 51% 28 29.79 0.0
05 09:35 NW 10 10.00 Overcast SCT040 OVC050 35.8 20.5 54% 29 29.79 0.0
05 09:15 NW 14 G 18 10.00 Overcast SCT040 OVC048 36 20.1 53% 28 29.78 0.0
05 08:55 W 10 G 18 10.00 Overcast BKN040 OVC050 35.8 20.3 53% 29 29.77 0.0
05 08:35 NW 10 G 17 10.00 Overcast BKN040 BKN049 OVC075 36.1 20.5 53% 29 29.77 0.0
05 08:15 NW 10 10.00 Overcast SCT040 SCT047 OVC075 35.8 21.4 56% 29 29.76 0.0
05 07:35 W 8 10.00 Mostly Cloudy SCT034 BKN075 35.1 21.7 58% 29 29.75 0.0
05 07:15 W 8 10.00 Mostly Cloudy BKN032 34 21.6 60% 28 29.75 0.0
05 06:55 W 10 G 16 10.00 Mostly Cloudy BKN032 34 21.2 41 32.7 60% 27 29.74 0.0
05 06:15 W 9 10.00 Partly Cloudy SCT034 32.7 23 67% 26 29.72 0.0
05 05:55 W 9 G 16 10.00 Partly Cloudy SCT036 32.9 23.4 68% 26 29.72 0.0
05 05:35 W 12 10.00 Fair CLR 33.4 23.4 67% 26 29.71 0.0
05 05:15 W 16 G 22 10.00 Partly Cloudy SCT039 33.6 23.5 67% 24 29.71 0.0
05 04:55 W 14 10.00 Partly Cloudy SCT046 33.6 26.1 74% 25 29.7 0.0
05 04:35 W 9 10.00 Overcast SCT017 BKN041 OVC048 34.3 30 84% 28 29.7 0.0
05 04:15 NW 12 7.00 Drizzle BKN019 OVC029 35.1 30 82% 28 29.69 0.0
05 03:55 W 7 10.00 Overcast SCT021 OVC029 36.7 29.7 76% 32 29.68 0.0
05 03:35 W 9 10.00 Mostly Cloudy SCT021 BKN029 BKN049 35.6 28.9 77% 29 29.67 0.0
05 03:15 W 6 G 10 10.00 Mostly Cloudy SCT029 SCT034 BKN046 36.5 28.8 74% 32 29.67 0.0
05 02:55 NW 13 G 17 10.00 Mostly Cloudy SCT040 BKN048 37 28 70% 30 29.67 0.0
05 02:35 NW 16 G 24 10.00 Mostly Cloudy SCT040 BKN050 38.7 26.2 61% 30 29.67 0.0
05 02:15 W 12 G 16 10.00 Fair CLR 37.8 25.7 62% 31 29.66 0.0
05 01:55 NW 8 10.00 Fair CLR 37.6 26.1 63% 32 29.66 0.0
05 01:35 W 7 10.00 Partly Cloudy SCT060 37.6 25.7 62% 33 29.66 0.0
05 01:15 NW 6 10.00 Mostly Cloudy SCT060 BKN075 39.7 25.7 57% 36 29.66 0.0
05 00:55 NW 10 10.00 Overcast SCT050 OVC075 40.6 24.8 46.4 40.5 53% 35 29.66 0.0
05 00:35 W 7 10.00 Overcast OVC075 41 23.9 51% 37 29.66 0.0
05 00:15 W 12 10.00 Partly Cloudy SCT075 41 23 49% 35 29.65 0.0
04 23:55 W 10 G 17 10.00 Fair CLR 41 23 49% 35 29.65 0.0
04 23:35 W 9 G 20 10.00 Partly Cloudy SCT075 42.1 23 47% 37 29.64 0.0
04 23:15 W 10 G 18 10.00 Overcast SCT065 OVC075 43.3 23.7 46% 38 29.64 0.0
04 22:55 W 12 10.00 Overcast SCT065 OVC085 43.3 23 45% 38 29.64 0.0
04 22:35 W 14 G 21 10.00 Overcast OVC085 44.1 23 43% 38 29.64 0.0
04 22:15 W 10 G 16 10.00 Overcast OVC085 44.4 22.8 42% 40 29.64 0.0
04 21:55 W 10 G 16 10.00 Overcast OVC085 44.4 22.5 42% 40 29.63 0.0
04 21:35 W 15 G 18 10.00 Overcast OVC085 44.6 21.9 41% 38 29.62 0.0
04 21:15 W 13 G 18 10.00 Overcast OVC085 44.4 22.1 41% 39 29.62 0.0
04 20:55 W 13 G 23 10.00 Overcast SCT065 OVC085 44.6 21.6 40% 39 29.61 0.0
04 20:35 W 14 G 18 10.00 Overcast SCT065 OVC075 44.4 21.6 40% 38 29.6 0.0
04 20:15 W 13 G 20 10.00 Overcast SCT065 OVC075 45.5 21.7 39% 40 29.6 0.0
04 19:55 W 13 G 26 10.00 Overcast OVC075 45.7 21.9 39% 40 29.59 0.0
04 19:35 W 16 G 22 10.00 Overcast OVC075 45.9 21.6 38% 40 29.59 0.0
04 19:15 W 15 G 26 10.00 Overcast OVC065 46 22.5 39% 40 29.58 0.0
04 18:55 W 20 G 26 10.00 Mostly Cloudy BKN065 BKN075 46.2 22.6 54.9 45.7 39% 39 29.58 0.0
04 18:35 W 14 G 25 10.00 Overcast BKN055 OVC065 47.1 24.6 41% 42 29.59 0.0
04 18:15 W 15 G 18 10.00 Overcast OVC060 46.2 26.2 46% 40 29.58 0.0
04 17:55 W 14 G 28 10.00 Overcast OVC060 46.8 25.9 44% 41 29.57 0.0
04 17:35 W 21 G 26 10.00 Overcast and Breezy OVC050 46.8 26.1 44% 40 29.57 0.0
04 17:15 W 16 G 30 10.00 Overcast SCT050 OVC060 47.7 26.8 44% 42 29.56 0.0
04 16:55 W 23 G 31 10.00 Overcast and Breezy BKN050 OVC060 48.6 27.3 44% 42 29.54 0.0
04 16:35 W 21 G 28 10.00 Overcast and Breezy SCT060 OVC065 49.1 28.6 45% 43 29.53 0.0
04 16:15 W 20 G 26 10.00 Overcast BKN050 OVC070 49.5 27.9 43% 43 29.52 0.0
04 15:55 W 17 G 23 10.00 Overcast SCT050 OVC060 50.5 28.8 43% 29.52 0.0
04 15:35 W 16 G 28 10.00 Overcast OVC060 50.2 28.4 43% 29.51 0.0
04 15:15 W 16 G 26 10.00 Overcast OVC060 50.9 28 41% 29.51 0.0
04 14:55 W 15 G 26 10.00 Overcast OVC060 51.4 28 41% 29.5 0.0
04 14:35 W 16 G 30 10.00 Overcast OVC060 52 28.8 41% 29.49 0.0
04 14:15 NW 24 G 33 10.00 Overcast and Breezy BKN050 OVC065 52.9 28.6 39% 29.48 0.0
04 13:55 W 20 G 29 10.00 Overcast OVC055 51.8 29.5 42% 29.47 0.0
04 13:35 NW 20 G 29 10.00 Mostly Cloudy BKN060 52.7 29.1 40% 29.46 0.0
04 13:15 W 23 G 31 10.00 Mostly Cloudy and Breezy BKN060 54.1 30 40% 29.45 0.0
04 12:55 W 18 G 30 10.00 Overcast OVC060 51.8 29.8 55.9 51.1 43% 29.45 0.0
04 12:35 W 14 G 30 10.00 Overcast OVC060 52.3 31.3 45% 29.44 0.0
04 12:15 W 18 G 29 10.00 Overcast BKN048 OVC060 51.1 31.3 47% 29.44 0.0
04 11:55 W 22 G 29 10.00 Overcast and Breezy OVC048 51.3 31.8 48% 29.43 0.0
04 11:35 W 23 G 29 10.00 Overcast and Breezy BKN048 OVC055 51.6 31.5 46% 29.42 0.0
04 11:15 W 21 G 32 10.00 Overcast and Breezy BKN048 OVC055 53.4 32.4 45% 29.41 0.0
04 10:55 NW 18 G 29 10.00 Overcast OVC046 52.9 32.9 47% 29.4 0.0
04 10:35 W 18 G 25 10.00 Overcast OVC048 52.9 32.2 45% 29.39 0.0
04 10:15 W 22 G 31 10.00 Overcast and Breezy OVC050 53.4 31.5 43% 29.37 0.0
04 09:55 W 20 G 28 10.00 Overcast OVC048 53.1 33.1 47% 29.36 0.0
04 09:35 W 21 G 33 10.00 Overcast and Breezy BKN047 OVC050 53.8 33.1 46% 29.36 0.0
04 09:15 W 13 G 22 10.00 Mostly Cloudy BKN050 55.8 36.9 49% 29.35 0.0
04 08:55 W 17 G 30 10.00 Overcast SCT043 BKN049 OVC110 52.7 36.1 54% 29.35 0.0
04 08:35 W 20 G 26 10.00 Overcast SCT041 OVC110 53.1 36.7 54% 29.34 0.0
04 08:15 W 14 G 20 10.00 Overcast SCT039 SCT065 OVC110 53.6 38.3 56% 29.32 0.0
04 07:55 W 10 10.00 Overcast SCT039 SCT070 OVC100 53.1 38.3 57% 29.31 0.0
04 07:35 W 13 G 22 10.00 Overcast SCT039 BKN060 OVC090 53.6 38.5 57% 29.32 0.0
04 07:15 W 16 G 22 10.00 Overcast OVC060 54.1 38.5 56% 29.31 0.0
04 06:55 W 14 G 22 10.00 Mostly Cloudy SCT065 BKN120 54.5 38.7 60.8 54 55% 29.3 0.0
04 06:35 NW 15 G 21 10.00 Partly Cloudy SCT120 54 39.7 59% 29.29 0.0
04 06:15 NW 20 G 26 10.00 Fair CLR 55 40.1 57% 29.28 0.0
04 05:55 W 18 G 26 10.00 Fair CLR 59.9 29.8 32% 29.24 0.0
04 05:35 SW 14 G 23 10.00 Partly Cloudy SCT120 59.9 29.3 31% 29.23 0.0
04 05:15 SW 14 G 21 10.00 Partly Cloudy SCT110 59.9 29.3 31% 29.23 0.0
04 04:55 SW 13 G 18 10.00 Overcast SCT090 OVC110 60.1 29.5 31% 29.24 0.0
04 04:35 SW 13 G 17 10.00 Overcast BKN090 OVC110 60.1 30 32% 29.25 0.0
04 04:15 SW 15 G 18 10.00 Mostly Cloudy BKN110 60.1 29.5 31% 29.26 0.0
04 03:55 SW 13 G 21 10.00 Partly Cloudy SCT100 59.9 29.8 32% 29.28 0.0
04 03:35 SW 13 G 22 10.00 Fair CLR 59.9 29.3 31% 29.29 0.0
04 03:15 SW 16 G 22 10.00 Fair CLR 60.1 29.3 31% 29.29 0.0
04 02:55 SW 15 G 23 10.00 Fair CLR 60.6 29.5 31% 29.31 0.0
04 02:35 SW 17 G 24 10.00 Fair CLR 60.4 29.5 31% 29.32 0.0
04 02:15 SW 14 G 20 10.00 Fair CLR 60.3 29.8 32% 29.34 0.0
04 01:55 SW 13 G 20 10.00 Fair CLR 60.3 30 32% 29.35 0.0
04 01:35 SW 13 10.00 Fair CLR 59.7 29.8 32% 29.37 0.0
04 01:15 SW 13 G 16 10.00 Fair CLR 59 29.7 33% 29.39 0.0
04 00:55 S 12 G 21 10.00 Fair CLR 58.8 29.1 66.4 56.1 32% 29.41 0.0
04 00:35 SW 10 10.00 Fair CLR 58.8 28.9 32% 29.41 0.0
04 00:15 SW 13 10.00 Fair CLR 58.5 28.4 32% 29.42 0.0
03 23:55 SW 12 10.00 Fair CLR 58.3 28 32% 29.44 0.0
03 23:35 SW 12 G 17 10.00 Fair CLR 57.6 27.9 32% 29.45 0.0
03 23:15 S 10 10.00 Fair CLR 56.8 27.7 33% 29.47 0.0
03 22:55 S 9 10.00 Fair CLR 57.6 28 32% 29.48 0.0
03 22:35 SW 9 10.00 Fair CLR 57.7 28.2 32% 29.5 0.0
03 22:15 SW 9 10.00 Fair CLR 58.1 28 32% 29.51 0.0
03 21:55 SW 9 10.00 Fair CLR 57.6 27.9 32% 29.52 0.0
03 21:35 S 8 10.00 Fair CLR 56.3 28 34% 29.53 0.0
03 21:15 S 7 10.00 Fair CLR 56.5 27.3 33% 29.54 0.0
03 20:55 SW 7 10.00 Fair CLR 58.1 26.4 30% 29.55 0.0
03 20:35 S 5 10.00 Fair CLR 59.7 25.7 27% 29.56 0.0
03 20:10 SW 5 10.00 Fair CLR 62.6 25.9 25% 29.56 0.0
03 19:55 SW 5 10.00 Fair CLR 63.5 25.7 24% 29.57 0.0
03 19:35 W 6 10.00 Fair CLR 65.3 25.3 22% 29.57 0.0
03 19:15 W 7 10.00 Fair CLR 66.2 25 21% 29.58 0.0
03 18:55 W 14 10.00 Fair CLR 66.6 25.2 68.9 64.8 21% 29.58 0.0
03 18:35 W 7 10.00 Fair CLR 66 25.5 22% 29.58 0.0
03 18:15 W 10 G 18 10.00 Fair CLR 68 25.3 20% 29.59 0.0
03 17:55 W 12 10.00 Fair CLR 65.5 24.6 21% 29.6 0.0
03 17:35 NW 17 G 25 10.00 Fair CLR 68 24.4 19% 29.6 0.0
03 17:15 W 17 G 21 10.00 Fair CLR 68 25.7 20% 29.6 0.0
03 16:55 W 12 G 21 10.00 Fair CLR 68.7 26.8 21% 29.6 0.0
03 16:35 W 14 G 20 10.00 Fair CLR 68.4 26.8 21% 29.61 0.0
03 16:15 W 13 G 16 10.00 Fair CLR 68.4 27.1 21% 29.62 0.0
03 15:55 W 14 G 24 10.00 Fair CLR 67.6 27 22% 29.62 0.0
03 15:35 W 13 G 20 10.00 Fair CLR 67.5 26.8 22% 29.63 0.0
03 15:15 NW 13 G 20 10.00 Fair CLR 68 27.7 22% 29.64 0.0
03 14:55 NW 12 G 24 10.00 Fair CLR 66.6 25.2 21% 29.64 0.0
03 14:35 NW 17 G 24 10.00 Fair CLR 66.7 24.3 20% 29.65 0.0
03 14:15 W 12 G 20 10.00 Fair CLR 66.4 20.8 17% 29.66 0.0
03 13:55 W 14 G 23 10.00 Fair CLR 65.5 20.1 18% 29.66 0.0
03 13:35 W 15 G 21 10.00 Fair CLR 64.9 20.1 18% 29.66 0.0
03 13:15 NW 13 G 20 10.00 Fair CLR 65.5 19.4 17% 29.67 0.0
03 12:55 NW 15 10.00 Fair CLR 64.9 18.7 65.8 36.9 17% 29.68 0.0
03 12:35 W 16 G 22 10.00 Fair CLR 65.7 24.3 21% 29.68 0.0
03 12:15 W 14 G 24 10.00 Fair CLR 64.8 26.1 23% 29.68 0.0
03 11:55 W 18 G 22 10.00 Fair CLR 65.1 31.8 29% 29.68 0.0
03 11:35 NW 18 G 24 10.00 Fair CLR 64.2 32.4 30% 29.68 0.0
03 11:15 NW 15 10.00 Fair CLR 63.5 36 36% 29.68 0.0
03 10:55 NW 13 10.00 Fair CLR 63 36.5 38% 29.68 0.0
03 10:35 NW 16 G 22 10.00 Fair CLR 62.6 36.9 39% 29.68 0.0
03 10:15 NW 16 G 22 10.00 Fair CLR 62.4 36.5 38% 29.68 0.0
03 09:55 NW 15 G 18 10.00 Fair CLR 62.6 36.7 38% 29.68 0.0
03 09:35 W 12 G 16 10.00 Fair CLR 61.7 38.1 42% 29.68 0.0
03 09:15 Calm 10.00 Fair CLR 56.8 38.7 51% 29.68 0.0
03 08:55 S 3 10.00 Fair CLR 53.2 37.4 55% 29.68 0.0
03 08:35 SW 3 10.00 Fair CLR 49.1 35.6 60% 29.69 0.0
03 08:15 Calm 10.00 Fair CLR 45.9 34.2 64% 29.69 0.0
03 07:55 Calm 10.00 Fair CLR 43.2 33.4 69% 29.69 0.0
03 07:30 Calm 10.00 Fair CLR 40.5 32.9 75% 29.69 0.0
03 07:15 SW 5 10.00 Fair CLR 39.2 32.5 77% 36 29.69 0.0
03 06:55 SW 5 10.00 Fair CLR 36.1 32.7 40.6 30.2 87% 33 29.69 0.0
03 06:35 SW 3 10.00 Fair CLR 32.9 30.4 90% 29.68 0.0
03 06:15 S 3 10.00 Fair CLR 30.9 28.8 92% 29.68 0.0
03 05:55 Calm 10.00 Fair CLR 31.5 28.9 90% 29.68 0.0
03 05:35 Calm 10.00 Fair CLR 32 29.8 92% 29.68 0.0
03 05:15 Calm 10.00 Fair CLR 31.5 29.7 93% 29.68 0.0
03 04:55 Calm 10.00 Fair CLR 32.2 29.3 89% 29.69 0.0
03 04:35 Calm 10.00 Fair CLR 32 28.4 87% 29.68 0.0
03 04:15 Calm 10.00 Fair CLR 34.2 30.2 85% 29.68 0.0
03 03:55 Calm 10.00 Fair CLR 34 30 85% 29.69 0.0
03 03:35 Calm 10.00 Fair CLR 35.8 29.8 79% 29.69 0.0
03 03:15 Calm 10.00 Fair CLR 37.8 30.4 75% 29.69 0.0
03 02:55 Calm 10.00 Partly Cloudy SCT120 38.3 31.1 75% 29.7 0.0
03 02:35 NE 3 10.00 Mostly Cloudy SCT095 BKN120 39.4 31.5 73% 29.7 0.0
03 02:15 Calm 10.00 Overcast OVC095 40.1 32 73% 29.71 0.0
03 01:55 Calm 10.00 Overcast OVC095 40.6 33.1 75% 29.72 0.0
03 01:35 Calm 10.00 Overcast OVC095 40.5 33.1 75% 29.73 0.0
03 01:15 Calm 10.00 Overcast OVC095 40.5 33.4 76% 29.74 0.0
03 00:55 Calm 10.00 Overcast OVC095 40.8 33.8 62.6 40.8 76% 29.74 0.0
03 00:35 N 3 10.00 Overcast OVC085 41 34.2 77% 29.75 0.0
03 00:15 N 5 10.00 Overcast SCT075 OVC085 42.8 34.5 73% 41 29.75 0.0
02 23:55 Calm 10.00 Overcast BKN070 OVC085 42.1 34.7 75% 29.75 0.0
02 23:35 SE 3 10.00 Overcast SCT065 OVC070 42.4 34.9 75% 29.76 0.0
02 23:15 Calm 10.00 Light Rain BKN065 OVC075 42.3 35.2 76% 29.77 0.0
02 22:55 Calm 10.00 Overcast SCT055 BKN075 OVC090 42.8 34.2 72% 29.77 0.0
02 22:35 Calm 10.00 Light Drizzle SCT055 BKN075 OVC085 42.3 33.1 70% 29.78 0.0
02 22:15 N 3 10.00 Overcast BKN070 OVC075 42.1 32 68% 29.79 0.0
02 21:55 NE 3 10.00 Overcast BKN070 OVC080 42.1 32 68% 29.79 0.0
02 21:35 NE 7 10.00 Overcast OVC070 43.7 32.5 65% 40 29.78 0.0
02 21:15 Calm 10.00 Overcast SCT060 BKN075 OVC080 44.2 33.1 65% 29.78 0.0
02 20:55 Calm 10.00 Overcast SCT060 BKN075 OVC090 45.7 33.6 63% 29.78 0.0
02 20:35 N 6 10.00 Overcast BKN075 OVC090 45.7 33.1 62% 43 29.77 0.0
02 20:15 N 7 10.00 Overcast SCT075 OVC090 60.4 32.2 35% 29.76 0.0
02 19:55 W 18 G 24 10.00 Overcast OVC090 61.5 32 33% 29.76 0.0
02 19:35 SW 10 10.00 Partly Cloudy SCT090 61.7 32 33% 29.76 0.0
02 19:15 SW 9 10.00 Partly Cloudy SCT090 61.9 32 33% 29.76 0.0
02 18:55 S 7 10.00 Partly Cloudy SCT100 SCT120 61.9 31.8 65.8 58.1 32% 29.77 0.0
02 18:35 S 7 10.00 Partly Cloudy SCT120 61.7 31.1 32% 29.78 0.0
02 18:15 S 9 10.00 Partly Cloudy SCT120 62.6 30.6 30% 29.79 0.0
02 17:55 SW 13 G 17 10.00 Partly Cloudy SCT110 65.1 30.2 27% 29.79 0.0
Date Time (cdt) Wind (mph) Vis. (mi.) Weather Sky Cond. Air Dwpt Max. Min. Relative Humidity Wind Chill (°F) Heat Index (°F) altimeter (in) sea level (mb) 1 hr 3 hr 6 hr
6 hour
Temperature (ºF) Pressure Precipitation (in)